Terminal Aerodrome Forecast
Issued by NWS

Home | Current Version | Previous Version | Text Only | Print | Product List | Glossary On
Versions: 1 2 3 4 5 6 7 8 9 10 11 12 13
000
FTPA31 PHFO 240500
TAFJRF
TAF
PHJR 240520Z 2406/2506 VRB03KT P6SM SCT040
     FM242100 10008KT P6SM FEW030 BKN045
      TEMPO 2421/2501 VRB06G12KT
     FM250400 VRB03KT P6SM SCT040=

USA.gov is the U.S. government's official web portal to all federal, state and local government web resources and services.